Time;durP1;ratioP1;P1;durP2;ratioP2;P2;SDS_P1;SDS_P2;PMS_P1;PMS_P2;Temp;Humidity;BMP_temperature;BMP_pressure;BME280_temperature;BME280_humidity;BME280_pressure;Samples;Min_cycle;Max_cycle;Signal;HPM_P1;HPM_P2
2021/05/17 00:02:13;;;;;;;1.05;0.30;;;12.30;90.40;;;;;;5032771;28;20032;-70
2021/05/17 00:04:41;;;;;;;0.20;0.20;;;12.30;90.40;;;;;;5032193;28;20053;-70
2021/05/17 00:07:09;;;;;;;3.90;0.40;;;12.30;90.20;;;;;;5032730;28;20155;-70
2021/05/17 00:09:35;;;;;;;0.45;0.30;;;12.30;90.30;;;;;;5031902;28;20029;-70
2021/05/17 00:12:02;;;;;;;0.63;0.10;;;12.30;90.20;;;;;;5032968;28;20033;-70
2021/05/17 00:14:29;;;;;;;1.58;0.20;;;12.30;90.30;;;;;;5013764;28;20029;-70
2021/05/17 00:16:56;;;;;;;0.40;0.20;;;12.30;90.10;;;;;;5032781;28;20041;-70
2021/05/17 00:19:22;;;;;;;1.63;0.40;;;12.30;89.40;;;;;;5014630;28;20175;-70
2021/05/17 00:21:49;;;;;;;1.73;0.45;;;12.30;89.40;;;;;;5014806;28;20037;-70
2021/05/17 00:24:16;;;;;;;0.85;0.20;;;12.30;89.50;;;;;;5015003;28;20088;-70
2021/05/17 00:26:42;;;;;;;1.08;0.20;;;12.30;88.80;;;;;;5014269;28;20358;-70
2021/05/17 00:29:11;;;;;;;1.02;0.22;;;12.30;88.60;;;;;;5032548;28;20427;-70
2021/05/17 00:31:38;;;;;;;1.17;0.30;;;12.30;88.40;;;;;;5031867;28;20029;-71
2021/05/17 00:34:06;;;;;;;0.57;0.25;;;12.30;88.20;;;;;;5032508;28;20540;-70
2021/05/17 00:36:32;;;;;;;1.38;0.25;;;12.30;88.00;;;;;;5013961;28;20112;-70
2021/05/17 00:39:00;;;;;;;1.27;0.30;;;12.30;87.80;;;;;;5014658;28;20037;-70
2021/05/17 00:41:29;;;;;;;1.17;0.30;;;12.30;87.80;;;;;;5031685;28;20506;-70
2021/05/17 00:43:55;;;;;;;0.38;0.10;;;12.20;87.30;;;;;;5032381;28;20021;-70
2021/05/17 00:46:22;;;;;;;0.82;0.20;;;12.20;87.50;;;;;;5014400;28;20079;-70
2021/05/17 00:48:49;;;;;;;4.13;0.30;;;12.20;87.60;;;;;;5030549;28;20045;-70
2021/05/17 00:51:15;;;;;;;0.88;0.20;;;12.20;87.60;;;;;;5014639;28;20029;-70
2021/05/17 00:53:41;;;;;;;0.82;0.20;;;12.20;87.80;;;;;;5031647;28;20053;-70
2021/05/17 00:56:07;;;;;;;0.57;0.13;;;12.20;88.00;;;;;;5014687;28;20033;-70
2021/05/17 00:58:33;;;;;;;0.95;0.20;;;12.20;88.00;;;;;;5013864;28;20037;-70
2021/05/17 01:01:03;;;;;;;1.60;0.40;;;12.20;87.90;;;;;;5031920;28;20026;-70
2021/05/17 01:03:29;;;;;;;0.73;0.38;;;12.20;87.90;;;;;;5031322;28;20055;-70
2021/05/17 01:05:55;;;;;;;0.32;0.20;;;12.20;87.90;;;;;;5014423;28;20422;-70
2021/05/17 01:08:32;;;;;;;0.60;0.30;;;12.20;87.60;;;;;;5032198;28;20025;-70
2021/05/17 01:11:01;;;;;;;1.50;0.20;;;12.20;87.60;;;;;;5014364;28;20029;-70
2021/05/17 01:13:31;;;;;;;0.28;0.15;;;12.20;87.60;;;;;;5031499;28;20033;-71
2021/05/17 01:15:59;;;;;;;2.28;0.30;;;12.20;87.80;;;;;;5014275;28;20386;-70
2021/05/17 01:18:26;;;;;;;1.17;0.20;;;12.20;88.00;;;;;;5014487;28;20133;-70
2021/05/17 01:20:54;;;;;;;1.08;0.38;;;12.20;88.00;;;;;;5032025;28;20101;-70
2021/05/17 01:25:51;;;;;;;0.63;0.28;;;12.20;88.40;;;;;;5032607;28;20025;-70
2021/05/17 01:28:21;;;;;;;0.22;0.10;;;12.20;88.60;;;;;;5018027;28;20034;-70
2021/05/17 01:30:53;;;;;;;2.60;0.30;;;12.10;88.70;;;;;;5035085;28;20025;-70
2021/05/17 01:33:19;;;;;;;0.95;0.35;;;12.10;89.10;;;;;;5017888;28;20030;-70
2021/05/17 01:35:48;;;;;;;0.50;0.20;;;12.10;89.00;;;;;;5017210;28;20034;-70
2021/05/17 01:38:16;;;;;;;0.40;0.10;;;12.10;89.00;;;;;;5035425;28;20057;-70
2021/05/17 01:40:47;;;;;;;2.08;0.38;;;12.20;88.90;;;;;;5017109;28;20382;-70
2021/05/17 01:43:15;;;;;;;0.25;0.10;;;12.10;88.90;;;;;;5017715;28;20470;-70
2021/05/17 01:45:42;;;;;;;1.50;0.40;;;12.10;88.80;;;;;;5034744;28;20030;-70
2021/05/17 01:48:07;;;;;;;1.20;0.30;;;12.10;88.80;;;;;;5035542;28;20079;-70
2021/05/17 01:50:35;;;;;;;0.80;0.20;;;12.10;89.00;;;;;;5033452;28;20025;-70
2021/05/17 01:53:00;;;;;;;1.30;0.38;;;12.00;89.10;;;;;;5034887;28;20026;-70
2021/05/17 01:55:27;;;;;;;0.70;0.20;;;12.00;89.60;;;;;;5035199;28;20033;-70
2021/05/17 01:58:10;;;;;;;0.50;0.20;;;12.10;89.50;;;;;;5017634;28;20045;-70
2021/05/17 02:00:37;;;;;;;0.43;0.22;;;12.10;89.30;;;;;;5016679;28;20447;-71
2021/05/17 02:03:03;;;;;;;1.83;0.30;;;12.00;89.20;;;;;;5017298;28;20053;-70
2021/05/17 02:05:29;;;;;;;1.63;0.30;;;12.00;88.90;;;;;;5016706;28;20512;-71
2021/05/17 02:07:56;;;;;;;2.53;0.22;;;12.00;89.00;;;;;;5017383;28;20048;-70
2021/05/17 02:10:22;;;;;;;2.22;0.38;;;12.00;88.70;;;;;;5017201;28;20377;-71
2021/05/17 02:12:49;;;;;;;0.45;0.20;;;12.00;89.00;;;;;;5033021;28;20689;-71
2021/05/17 02:15:19;;;;;;;1.45;0.25;;;12.00;88.90;;;;;;5034479;28;20025;-71
2021/05/17 02:18:09;;;;;;;0.35;0.20;;;12.00;89.00;;;;;;5015989;28;20087;-70
2021/05/17 02:20:37;;;;;;;0.35;0.13;;;11.90;88.40;;;;;;5034262;28;20105;-70
2021/05/17 02:23:08;;;;;;;1.58;0.30;;;11.90;88.40;;;;;;5016816;28;20107;-70
2021/05/17 02:25:34;;;;;;;0.63;0.20;;;11.90;88.40;;;;;;5034063;28;20056;-71
2021/05/17 02:27:59;;;;;;;1.02;0.45;;;11.90;88.50;;;;;;5017066;28;20115;-70
2021/05/17 02:30:26;;;;;;;2.13;0.20;;;11.90;88.10;;;;;;5034534;28;20033;-70
2021/05/17 02:32:53;;;;;;;0.38;0.25;;;11.80;88.00;;;;;;5016005;28;20035;-70
2021/05/17 02:35:20;;;;;;;1.00;0.20;;;11.80;88.10;;;;;;5016685;28;20036;-70
2021/05/17 02:37:47;;;;;;;2.15;0.30;;;11.80;88.70;;;;;;5033072;28;20037;-70
2021/05/17 02:40:13;;;;;;;1.60;0.20;;;11.70;88.50;;;;;;5016679;28;20021;-70
2021/05/17 02:42:44;;;;;;;0.17;0.10;;;11.70;88.90;;;;;;5033754;28;20025;-71
2021/05/17 02:45:11;;;;;;;0.80;0.20;;;11.70;88.90;;;;;;5016654;28;20025;-70
2021/05/17 02:47:37;;;;;;;1.80;0.20;;;11.70;88.70;;;;;;5033839;28;20516;-70
2021/05/17 02:50:04;;;;;;;0.52;0.20;;;11.70;88.50;;;;;;5016411;28;20037;-70
2021/05/17 02:52:34;;;;;;;0.82;0.20;;;11.70;88.30;;;;;;5016316;28;20026;-70
2021/05/17 02:55:07;;;;;;;1.98;0.30;;;11.70;88.10;;;;;;5034076;28;20036;-70
2021/05/17 02:57:48;;;;;;;0.63;0.10;;;11.70;88.20;;;;;;5033197;28;20494;-70
2021/05/17 03:00:18;;;;;;;2.20;0.20;;;11.70;88.60;;;;;;5016272;28;20021;-70
2021/05/17 03:03:02;;;;;;;3.65;0.32;;;11.70;87.90;;;;;;5015912;28;20067;-70
2021/05/17 03:05:36;;;;;;;1.17;0.20;;;11.60;87.90;;;;;;5033923;28;20032;-70
2021/05/17 03:08:04;;;;;;;2.10;0.20;;;11.60;88.10;;;;;;5016507;28;20144;-70
2021/05/17 03:10:31;;;;;;;0.43;0.13;;;11.60;88.30;;;;;;5016012;28;20021;-70
2021/05/17 03:13:02;;;;;;;1.42;0.20;;;11.60;88.60;;;;;;5032053;28;20104;-70
2021/05/17 03:15:28;;;;;;;2.17;0.17;;;11.50;88.40;;;;;;5015867;28;20120;-70
2021/05/17 03:17:56;;;;;;;3.90;0.65;;;11.50;89.00;;;;;;5032676;28;20435;-70
2021/05/17 03:20:22;;;;;;;2.58;0.35;;;11.60;89.30;;;;;;5033239;28;20463;-70
2021/05/17 03:22:51;;;;;;;1.58;0.40;;;11.60;89.10;;;;;;5032653;28;20605;-70
2021/05/17 03:25:20;;;;;;;1.60;0.38;;;11.50;89.30;;;;;;5033492;28;20033;-70
2021/05/17 03:27:45;;;;;;;1.08;0.15;;;11.50;89.40;;;;;;5015149;28;20116;-71
2021/05/17 03:30:12;;;;;;;1.48;0.30;;;11.60;89.40;;;;;;5015718;28;20431;-70
2021/05/17 03:32:37;;;;;;;2.45;0.22;;;11.50;89.10;;;;;;5032766;28;20025;-71
2021/05/17 03:35:04;;;;;;;0.40;0.20;;;11.50;89.40;;;;;;5015790;28;20374;-70
2021/05/17 03:37:29;;;;;;;1.58;0.40;;;11.50;89.90;;;;;;5033263;28;20033;-70
2021/05/17 03:39:55;;;;;;;2.75;0.38;;;11.50;90.10;;;;;;5032658;28;20025;-70
2021/05/17 03:42:21;;;;;;;0.82;0.50;;;11.40;90.50;;;;;;5032155;28;20087;-70
2021/05/17 03:44:49;;;;;;;2.00;0.40;;;11.40;90.50;;;;;;5032221;28;20040;-70
2021/05/17 03:47:15;;;;;;;1.77;0.30;;;11.40;90.40;;;;;;5032839;28;20053;-70
2021/05/17 03:49:40;;;;;;;4.55;0.60;;;11.40;90.90;;;;;;5031281;28;20113;-70
2021/05/17 03:52:06;;;;;;;1.15;0.30;;;11.40;90.60;;;;;;5032974;28;20029;-70
2021/05/17 03:54:32;;;;;;;2.78;0.50;;;11.40;90.40;;;;;;5015251;28;20021;-70
2021/05/17 03:56:58;;;;;;;3.83;0.38;;;11.40;90.40;;;;;;5014499;28;20125;-71
2021/05/17 03:59:24;;;;;;;1.50;0.30;;;11.40;90.40;;;;;;5015016;28;20441;-70
2021/05/17 04:01:50;;;;;;;2.25;0.50;;;11.50;90.40;;;;;;5014813;28;20095;-70
2021/05/17 04:04:17;;;;;;;2.75;0.50;;;11.50;90.70;;;;;;5032837;28;20408;-70
2021/05/17 04:15:12;;;;;;;2.28;0.52;;;11.40;90.10;;;;;;4971459;28;20030;-70
2021/05/17 04:17:38;;;;;;;2.17;0.20;;;11.40;90.00;;;;;;5005579;28;20053;-70
2021/05/17 04:20:04;;;;;;;3.50;0.40;;;11.30;89.70;;;;;;5031549;28;20030;-70
2021/05/17 04:22:30;;;;;;;2.38;0.35;;;11.30;89.60;;;;;;5032569;28;20034;-70
2021/05/17 04:24:55;;;;;;;2.15;0.20;;;11.30;89.70;;;;;;5031999;28;20263;-70
2021/05/17 04:27:21;;;;;;;0.88;0.30;;;11.30;90.00;;;;;;5032905;28;20033;-70
2021/05/17 04:29:47;;;;;;;0.28;0.20;;;11.30;90.00;;;;;;5032165;28;20032;-70
2021/05/17 04:32:12;;;;;;;2.50;0.35;;;11.20;89.90;;;;;;5014977;28;20026;-70
2021/05/17 04:34:38;;;;;;;0.32;0.13;;;11.20;90.00;;;;;;5014250;28;20420;-70
2021/05/17 04:37:03;;;;;;;0.70;0.20;;;11.20;90.10;;;;;;5014663;28;20033;-70
2021/05/17 04:39:29;;;;;;;0.75;0.20;;;11.30;90.00;;;;;;5032428;28;20037;-70
2021/05/17 04:41:54;;;;;;;1.25;0.40;;;11.30;89.80;;;;;;5014167;28;20389;-70
2021/05/17 04:44:20;;;;;;;3.90;0.20;;;11.30;89.80;;;;;;5031142;28;20063;-70
2021/05/17 04:46:46;;;;;;;1.05;0.20;;;11.40;89.60;;;;;;5013733;28;20141;-70
2021/05/17 04:49:11;;;;;;;0.63;0.10;;;11.40;89.90;;;;;;5014623;28;20372;-70
2021/05/17 04:51:37;;;;;;;1.50;0.17;;;11.40;89.30;;;;;;5032294;28;20036;-70
2021/05/17 04:54:03;;;;;;;1.30;0.32;;;11.30;89.30;;;;;;5014200;28;20030;-70
2021/05/17 04:56:29;;;;;;;1.17;0.28;;;11.40;89.20;;;;;;5014431;28;20034;-70
2021/05/17 04:58:54;;;;;;;2.30;0.30;;;11.30;89.00;;;;;;5030356;28;20056;-70
2021/05/17 05:01:20;;;;;;;3.17;0.40;;;11.40;88.40;;;;;;5016703;28;20459;-70
2021/05/17 05:03:45;;;;;;;1.42;0.30;;;11.40;89.10;;;;;;5034281;28;20459;-70
2021/05/17 05:06:11;;;;;;;0.82;0.20;;;11.30;89.10;;;;;;5035846;28;20026;-70
2021/05/17 05:08:37;;;;;;;1.15;0.50;;;11.40;89.40;;;;;;5018262;28;20095;-70
2021/05/17 05:11:02;;;;;;;2.85;0.30;;;11.40;89.20;;;;;;5017443;28;20455;-70
2021/05/17 05:13:28;;;;;;;0.98;0.10;;;11.30;89.10;;;;;;5035920;28;20052;-70
2021/05/17 05:15:54;;;;;;;0.32;0.15;;;11.30;89.00;;;;;;5035199;28;20420;-70
2021/05/17 05:18:20;;;;;;;1.10;0.30;;;11.30;89.10;;;;;;5018088;28;20087;-70
2021/05/17 05:20:46;;;;;;;2.22;0.30;;;11.30;89.40;;;;;;5017463;28;20149;-70
2021/05/17 05:23:21;;;;;;;0.40;0.20;;;11.40;89.30;;;;;;5018075;28;20079;-70
2021/05/17 05:28:22;;;;;;;1.40;0.30;;;11.40;89.20;;;;;;5035788;28;20026;-70
2021/05/17 05:31:15;;;;;;;2.40;0.25;;;11.30;89.40;;;;;;5033788;28;20030;-70
2021/05/17 05:33:40;;;;;;;3.10;0.63;;;11.40;89.60;;;;;;5035368;28;20025;-75
2021/05/17 05:36:06;;;;;;;2.20;0.30;;;11.40;89.40;;;;;;5017817;28;20512;-70
2021/05/17 05:38:32;;;;;;;2.97;0.40;;;11.30;89.80;;;;;;5017674;28;20410;-70
2021/05/17 05:40:58;;;;;;;0.52;0.30;;;11.30;89.90;;;;;;5017136;28;20489;-70
2021/05/17 05:43:23;;;;;;;1.65;0.47;;;11.40;89.70;;;;;;5035363;28;20040;-70
2021/05/17 05:45:50;;;;;;;2.45;0.20;;;11.40;89.60;;;;;;5034611;28;20033;-70
2021/05/17 05:48:17;;;;;;;1.10;0.30;;;11.50;89.10;;;;;;5017818;28;20060;-70
2021/05/17 05:50:45;;;;;;;2.80;0.38;;;11.50;89.40;;;;;;5016914;28;20021;-70
2021/05/17 05:53:11;;;;;;;1.38;0.30;;;11.50;88.50;;;;;;5035244;28;20140;-70
2021/05/17 05:55:37;;;;;;;2.03;0.50;;;11.50;88.00;;;;;;5035194;28;20021;-70
2021/05/17 05:58:02;;;;;;;0.85;0.30;;;11.50;87.70;;;;;;5016671;28;20034;-70
2021/05/17 06:00:31;;;;;;;1.50;0.13;;;11.50;87.60;;;;;;5034920;28;20083;-70
2021/05/17 06:03:00;;;;;;;0.40;0.20;;;11.50;87.40;;;;;;5016693;28;20029;-70
2021/05/17 06:05:26;;;;;;;1.58;0.35;;;11.50;87.30;;;;;;5017321;28;20079;-70
2021/05/17 06:07:52;;;;;;;3.20;0.25;;;11.40;87.30;;;;;;5034430;28;20078;-70
2021/05/17 06:10:18;;;;;;;2.00;0.52;;;11.40;87.60;;;;;;5033813;28;20033;-70
2021/05/17 06:12:48;;;;;;;0.40;0.20;;;11.40;87.80;;;;;;5033496;28;20029;-71
2021/05/17 06:15:18;;;;;;;1.88;0.40;;;11.50;87.90;;;;;;5034645;28;20029;-70
2021/05/17 06:17:46;;;;;;;1.13;0.43;;;11.50;88.10;;;;;;5016365;28;20136;-71
2021/05/17 06:20:13;;;;;;;0.80;0.28;;;11.50;87.20;;;;;;5034788;28;20022;-70
2021/05/17 06:22:39;;;;;;;0.65;0.40;;;11.50;87.70;;;;;;5016912;28;20025;-70
2021/05/17 06:25:09;;;;;;;1.10;0.40;;;11.50;87.30;;;;;;5034333;28;20033;-70
2021/05/17 06:27:36;;;;;;;0.57;0.15;;;11.60;87.40;;;;;;5034495;28;20025;-70
2021/05/17 06:30:04;;;;;;;1.70;0.35;;;11.60;87.80;;;;;;5033707;28;20022;-70
2021/05/17 06:32:34;;;;;;;0.73;0.20;;;11.70;86.30;;;;;;5034522;28;20032;-70
2021/05/17 06:35:06;;;;;;;0.40;0.17;;;11.80;85.60;;;;;;5032497;28;20025;-70
2021/05/17 06:37:32;;;;;;;;;;;11.80;85.80;;;;;;5033458;28;20048;-70
2021/05/17 06:39:57;;;;;;;0.80;0.10;;;11.80;84.90;;;;;;5033453;28;19905;-70
2021/05/17 06:42:23;;;;;;;1.92;0.20;;;11.70;84.70;;;;;;5034328;28;20021;-71
2021/05/17 06:44:49;;;;;;;0.75;0.10;;;11.70;85.40;;;;;;5033632;28;20029;-71
2021/05/17 06:47:16;;;;;;;1.42;0.20;;;11.60;84.70;;;;;;5015919;28;20081;-70
2021/05/17 06:49:42;;;;;;;1.15;0.20;;;11.60;85.00;;;;;;5016457;28;20083;-70
2021/05/17 06:52:12;;;;;;;2.05;0.40;;;11.70;84.90;;;;;;5015827;28;20025;-70
2021/05/17 06:54:38;;;;;;;0.85;0.22;;;11.90;84.90;;;;;;5034108;28;20112;-70
2021/05/17 06:57:15;;;;;;;1.35;0.45;;;12.10;83.30;;;;;;5015688;28;20038;-70
2021/05/17 06:59:46;;;;;;;2.08;0.43;;;12.10;83.30;;;;;;5016334;28;20029;-70
2021/05/17 07:02:21;;;;;;;2.08;0.38;;;12.10;82.30;;;;;;5016183;28;20486;-70
2021/05/17 07:04:48;;;;;;;4.20;0.35;;;12.10;81.30;;;;;;5033390;28;20490;-72
2021/05/17 07:07:18;;;;;;;1.42;0.22;;;12.20;81.40;;;;;;5034242;28;20022;-70
2021/05/17 07:12:28;;;;;;;2.30;0.22;;;12.30;81.90;;;;;;5033568;28;20076;-70
2021/05/17 07:14:55;;;;;;;1.08;0.30;;;12.30;80.90;;;;;;5033206;28;20030;-70
2021/05/17 07:17:20;;;;;;;1.83;0.17;;;12.20;80.60;;;;;;5015402;28;20041;-71
2021/05/17 07:19:46;;;;;;;0.95;0.20;;;12.20;81.30;;;;;;5033342;28;20095;-70
2021/05/17 07:24:56;;;;;;;0.50;0.20;;;12.20;81.00;;;;;;5032518;28;20113;-70
2021/05/17 07:27:22;;;;;;;2.13;0.30;;;12.20;81.10;;;;;;5033254;28;20477;-70
2021/05/17 07:29:50;;;;;;;2.33;0.30;;;12.20;82.00;;;;;;5015147;28;20481;-73
2021/05/17 07:32:15;;;;;;;0.22;0.10;;;12.20;82.30;;;;;;5031979;28;20437;-70
2021/05/17 07:34:41;;;;;;;1.08;0.45;;;12.20;82.60;;;;;;5033253;28;20029;-70
2021/05/17 07:37:07;;;;;;;2.60;0.20;;;12.20;82.20;;;;;;5014611;28;20429;-70
2021/05/17 07:39:34;;;;;;;2.58;0.22;;;12.30;81.60;;;;;;5015288;28;20467;-70
2021/05/17 07:42:00;;;;;;;1.10;0.20;;;12.20;82.00;;;;;;5014768;28;20120;-70
2021/05/17 07:44:26;;;;;;;1.27;0.22;;;12.30;82.00;;;;;;5033142;28;20030;-70
2021/05/17 07:46:51;;;;;;;4.65;0.20;;;12.40;82.00;;;;;;5032003;28;20501;-70
2021/05/17 07:49:34;;;;;;;1.75;0.35;;;12.40;82.20;;;;;;5031696;28;20030;-70
2021/05/17 07:52:00;;;;;;;4.25;0.40;;;12.60;83.00;;;;;;5014628;28;20459;-71
2021/05/17 07:54:27;;;;;;;4.32;0.63;;;12.60;82.70;;;;;;5033066;28;20040;-70
2021/05/17 07:56:52;;;;;;;1.90;0.45;;;12.70;82.30;;;;;;5030914;28;20116;-71
2021/05/17 07:59:19;;;;;;;3.70;0.55;;;12.80;83.20;;;;;;5032901;28;20108;-70
2021/05/17 08:01:45;;;;;;;2.35;0.45;;;12.80;83.30;;;;;;5032889;28;20069;-70
2021/05/17 08:04:11;;;;;;;1.38;0.40;;;12.90;83.50;;;;;;5032233;28;20487;-70
2021/05/17 08:06:36;;;;;;;3.78;0.73;;;13.00;83.20;;;;;;5032495;28;20474;-71
2021/05/17 08:09:03;;;;;;;1.77;0.35;;;13.00;83.50;;;;;;5031835;28;20056;-71
2021/05/17 08:11:29;;;;;;;1.67;0.40;;;13.00;83.70;;;;;;5015060;28;20374;-70
2021/05/17 08:13:55;;;;;;;1.45;0.40;;;12.80;83.60;;;;;;5032085;28;20052;-70
2021/05/17 08:16:22;;;;;;;4.15;0.32;;;12.80;84.40;;;;;;5014860;28;20463;-70
2021/05/17 08:18:49;;;;;;;2.25;0.47;;;12.80;84.40;;;;;;5031194;28;20478;-70
2021/05/17 08:21:14;;;;;;;9.40;0.50;;;12.60;85.50;;;;;;5032025;28;20105;-70
2021/05/17 08:23:40;;;;;;;0.93;0.30;;;12.60;86.30;;;;;;5032623;28;20105;-70
2021/05/17 08:26:07;;;;;;;3.05;0.50;;;12.60;87.00;;;;;;5031933;28;20356;-71
2021/05/17 08:28:34;;;;;;;4.13;0.75;;;12.50;87.40;;;;;;5015022;28;20033;-70
2021/05/17 08:31:00;;;;;;;2.17;0.30;;;12.50;86.80;;;;;;5031954;28;20163;-70
2021/05/17 08:33:26;;;;;;;1.05;0.40;;;12.40;86.30;;;;;;5032485;28;20532;-70
2021/05/17 08:35:52;;;;;;;0.55;0.20;;;12.40;86.90;;;;;;5035325;28;20098;-72
2021/05/17 08:38:18;;;;;;;3.03;0.55;;;12.50;86.10;;;;;;5021273;28;20044;-70
2021/05/17 08:40:46;;;;;;;0.85;0.22;;;12.50;86.90;;;;;;5039044;28;20032;-70
2021/05/17 08:43:12;;;;;;;1.00;0.20;;;12.50;86.60;;;;;;5038388;28;20192;-71
2021/05/17 08:45:37;;;;;;;2.92;0.30;;;12.50;87.30;;;;;;5039121;28;20056;-70
2021/05/17 08:48:04;;;;;;;3.30;0.28;;;12.50;87.80;;;;;;5016959;28;20503;-71
2021/05/17 08:50:31;;;;;;;3.58;0.43;;;12.60;87.20;;;;;;5017995;28;20112;-70
2021/05/17 08:52:56;;;;;;;1.75;0.20;;;12.60;87.60;;;;;;5017277;28;20045;-71
2021/05/17 08:55:22;;;;;;;3.83;2.40;;;12.50;88.30;;;;;;5019111;28;20398;-71
2021/05/17 08:57:49;;;;;;;3.65;1.60;;;12.60;88.30;;;;;;5017690;28;20040;-70
2021/05/17 09:00:20;;;;;;;1.45;0.52;;;12.60;88.30;;;;;;5017219;28;20485;-70
2021/05/17 09:02:46;;;;;;;3.22;1.30;;;12.70;88.10;;;;;;5017906;28;20124;-71
2021/05/17 09:05:33;;;;;;;1.55;0.47;;;12.80;88.00;;;;;;5017136;28;20025;-71
2021/05/17 09:08:03;;;;;;;0.98;0.35;;;12.80;87.20;;;;;;5033499;28;20034;-71
2021/05/17 09:10:37;;;;;;;3.63;0.30;;;12.90;87.30;;;;;;5019099;28;20028;-70
2021/05/17 09:13:14;;;;;;;1.17;0.25;;;12.90;87.10;;;;;;5017184;28;20528;-70
2021/05/17 09:15:49;;;;;;;2.55;0.70;;;12.70;88.30;;;;;;5018766;28;20030;-71
2021/05/17 09:18:22;;;;;;;1.65;0.20;;;12.50;89.60;;;;;;5017063;28;20034;-70
2021/05/17 09:20:50;;;;;;;0.32;0.10;;;12.20;84.00;;;;;;5018890;28;20030;-71
2021/05/17 09:23:15;;;;;;;1.05;0.10;;;12.00;82.50;;;;;;5016605;28;20494;-71
2021/05/17 09:26:03;;;;;;;0.43;0.08;;;12.00;82.20;;;;;;5018817;28;20026;-70
2021/05/17 09:28:37;;;;;;;0.17;0.00;;;11.80;84.40;;;;;;5017891;28;20038;-71
2021/05/17 09:31:06;;;;;;;0.20;0.00;;;11.90;84.90;;;;;;5016989;28;20026;-71
2021/05/17 09:33:51;;;;;;;1.05;0.10;;;11.90;85.30;;;;;;5017191;28;20026;-71
2021/05/17 09:36:36;;;;;;;1.45;0.10;;;11.70;85.60;;;;;;5016941;28;20053;-70
2021/05/17 09:39:07;;;;;;;0.13;0.10;;;11.60;85.60;;;;;;5018042;28;20033;-71
2021/05/17 09:41:56;;;;;;;0.38;0.20;;;11.50;86.10;;;;;;5018754;28;20026;-71
2021/05/17 09:44:24;;;;;;;0.13;0.08;;;11.40;85.30;;;;;;5017726;28;20025;-71
2021/05/17 09:47:02;;;;;;;0.28;0.00;;;11.20;87.50;;;;;;5016182;28;20109;-71
2021/05/17 09:49:38;;;;;;;0.98;0.15;;;11.20;87.80;;;;;;5014320;28;20026;-70
2021/05/17 09:52:08;;;;;;;0.40;0.17;;;11.20;87.80;;;;;;5013815;28;20379;-71
2021/05/17 09:54:50;;;;;;;0.77;0.20;;;11.20;88.20;;;;;;5013980;28;20022;-70
2021/05/17 09:57:19;;;;;;;3.50;0.20;;;11.20;89.80;;;;;;5013530;28;20593;-71
2021/05/17 09:59:49;;;;;;;3.55;0.30;;;11.20;89.10;;;;;;5015346;28;20022;-70
2021/05/17 10:02:40;;;;;;;0.82;0.20;;;11.40;89.20;;;;;;5013434;28;20030;-71
2021/05/17 10:05:12;;;;;;;0.45;0.15;;;11.60;89.00;;;;;;5014710;28;20053;-71
2021/05/17 10:07:37;;;;;;;4.57;0.35;;;11.70;89.50;;;;;;4997581;28;20056;-71
2021/05/17 10:10:05;;;;;;;2.15;0.15;;;11.70;90.10;;;;;;5013405;28;20030;-71
2021/05/17 10:12:31;;;;;;;1.85;0.10;;;11.90;90.50;;;;;;5015199;28;20591;-71
2021/05/17 10:14:58;;;;;;;0.75;0.30;;;12.10;90.60;;;;;;5030134;28;20058;-74
2021/05/17 10:17:26;;;;;;;2.55;0.40;;;12.20;90.90;;;;;;5013894;28;20042;-71
2021/05/17 10:19:52;;;;;;;2.15;0.40;;;12.40;90.60;;;;;;5014973;28;20034;-70
2021/05/17 10:22:18;;;;;;;5.40;2.90;;;12.50;90.50;;;;;;5012994;28;20455;-71
2021/05/17 10:24:44;;;;;;;0.65;0.32;;;12.70;90.50;;;;;;5013771;28;20538;-71
2021/05/17 10:27:10;;;;;;;2.90;0.60;;;12.80;89.90;;;;;;5029606;28;20076;-70
2021/05/17 10:29:38;;;;;;;3.03;0.32;;;12.70;89.00;;;;;;5014601;28;20026;-70
2021/05/17 10:32:06;;;;;;;2.83;0.47;;;12.70;89.20;;;;;;5012791;28;20026;-71
2021/05/17 10:34:31;;;;;;;1.83;0.30;;;12.60;89.60;;;;;;5013673;28;20026;-70
2021/05/17 10:37:00;;;;;;;4.50;0.70;;;12.50;89.30;;;;;;5029930;28;20026;-70
2021/05/17 10:39:39;;;;;;;2.38;0.73;;;12.50;89.30;;;;;;5013475;28;20450;-70
2021/05/17 10:47:45;;;;;;;2.58;0.50;;;12.60;89.20;;;;;;5030030;28;20064;-70
2021/05/17 10:50:17;;;;;;;4.53;0.60;;;12.90;90.80;;;;;;5015813;28;20459;-71
2021/05/17 10:52:43;;;;;;;;;;;13.20;89.10;;;;;;5034634;28;20030;-70
2021/05/17 10:55:14;;;;;;;0.68;0.20;;;13.50;85.90;;;;;;5015816;28;20243;-70
2021/05/17 10:58:11;;;;;;;0.73;0.17;;;13.50;82.40;;;;;;5016479;28;20084;-71
2021/05/17 11:00:38;;;;;;;2.08;0.38;;;13.50;81.80;;;;;;5034051;28;20039;-70
2021/05/17 11:03:10;;;;;;;2.33;0.40;;;13.50;83.10;;;;;;5015548;28;20488;-71
2021/05/17 11:05:37;;;;;;;3.45;0.20;;;13.50;82.30;;;;;;5015875;28;20052;-71
2021/05/17 11:08:14;;;;;;;1.50;0.35;;;13.50;82.30;;;;;;5033262;28;20025;-71
2021/05/17 11:10:49;;;;;;;2.97;0.60;;;13.50;83.90;;;;;;5016424;28;20053;-71
2021/05/17 11:13:17;;;;;;;1.17;0.20;;;13.60;85.00;;;;;;5015546;28;20022;-71
2021/05/17 11:15:55;;;;;;;1.85;0.30;;;13.60;83.60;;;;;;5015761;28;20036;-70
2021/05/17 11:18:26;;;;;;;2.70;0.38;;;13.60;85.00;;;;;;5015304;28;20722;-71
2021/05/17 11:21:23;;;;;;;4.40;0.50;;;13.60;84.70;;;;;;5015826;28;20383;-71
2021/05/17 11:24:02;;;;;;;1.58;0.20;;;13.60;84.70;;;;;;5009254;28;20064;-70
2021/05/17 11:26:31;;;;;;;2.15;0.30;;;13.70;83.10;;;;;;5015841;28;20558;-70
2021/05/17 11:28:59;;;;;;;0.65;0.30;;;14.10;83.80;;;;;;5033519;28;20025;-71
2021/05/17 11:31:27;;;;;;;0.57;0.38;;;14.30;84.10;;;;;;5032547;28;20021;-71
2021/05/17 11:34:06;;;;;;;2.47;0.50;;;14.30;82.60;;;;;;5015398;28;20036;-71
2021/05/17 11:36:38;;;;;;;1.63;0.20;;;14.20;82.20;;;;;;5033629;28;20018;-70
2021/05/17 11:39:22;;;;;;;2.65;0.38;;;14.00;82.40;;;;;;5015019;28;20060;-71
2021/05/17 11:41:54;;;;;;;1.67;0.30;;;13.80;82.60;;;;;;5015805;28;20032;-71
2021/05/17 11:44:34;;;;;;;1.58;0.20;;;13.70;82.30;;;;;;5014735;28;20025;-71
2021/05/17 11:47:06;;;;;;;1.42;0.30;;;13.70;82.60;;;;;;5014611;28;20052;-71
2021/05/17 11:49:34;;;;;;;1.85;0.22;;;13.70;83.10;;;;;;5032311;28;20534;-70
2021/05/17 11:52:08;;;;;;;2.42;0.30;;;13.60;84.30;;;;;;5014531;28;20128;-70
2021/05/17 11:54:45;;;;;;;1.48;0.10;;;13.50;84.00;;;;;;5032376;28;20021;-71
2021/05/17 11:57:11;;;;;;;2.50;0.20;;;13.50;84.30;;;;;;5013785;28;20064;-71
2021/05/17 11:59:38;;;;;;;1.08;0.10;;;13.40;83.80;;;;;;5014508;28;20029;-70
2021/05/17 12:02:06;;;;;;;0.65;0.20;;;13.30;83.90;;;;;;5014094;28;20036;-73
2021/05/17 12:04:40;;;;;;;2.92;0.28;;;13.30;85.10;;;;;;5032188;28;20108;-70
2021/05/17 12:07:11;;;;;;;1.95;0.10;;;13.30;83.90;;;;;;5013888;28;20029;-71
2021/05/17 12:09:39;;;;;;;0.40;0.17;;;13.30;84.30;;;;;;5013599;28;20112;-70
2021/05/17 12:12:19;;;;;;;2.95;0.20;;;13.30;84.80;;;;;;5013229;28;20387;-71
2021/05/17 12:14:53;;;;;;;0.43;0.10;;;13.20;85.20;;;;;;5014478;28;20052;-70
2021/05/17 12:17:24;;;;;;;0.47;0.10;;;13.30;85.20;;;;;;5031426;28;20100;-70
2021/05/17 12:19:55;;;;;;;0.60;0.20;;;13.30;85.40;;;;;;5014225;28;20513;-70
2021/05/17 12:22:39;;;;;;;0.33;0.10;;;13.40;84.70;;;;;;5013491;28;20056;-71
2021/05/17 12:25:13;;;;;;;1.10;0.10;;;13.50;84.10;;;;;;5031616;28;20017;-74
2021/05/17 12:27:40;;;;;;;0.98;0.10;;;13.40;84.80;;;;;;5014193;28;20061;-70
2021/05/17 12:30:10;;;;;;;0.45;0.20;;;13.20;84.50;;;;;;5013520;28;20025;-71
2021/05/17 12:32:43;;;;;;;1.35;0.30;;;13.10;85.40;;;;;;5013956;28;20021;-70
2021/05/17 12:35:25;;;;;;;0.38;0.10;;;13.00;86.90;;;;;;5030812;28;20459;-70
2021/05/17 12:37:54;;;;;;;1.05;0.55;;;12.90;90.00;;;;;;5013811;28;20038;-70
2021/05/17 12:40:34;;;;;;;0.93;0.17;;;12.80;90.40;;;;;;5013329;28;20161;-71
2021/05/17 12:43:19;;;;;;;0.60;0.10;;;12.70;86.40;;;;;;5014056;28;20026;-70
2021/05/17 12:45:48;;;;;;;0.30;0.10;;;12.60;86.70;;;;;;5031308;28;20060;-70
2021/05/17 12:48:19;;;;;;;1.98;0.60;;;12.70;86.70;;;;;;5009757;28;626286;-71
2021/05/17 12:50:47;;;;;;;2.97;0.25;;;12.80;84.80;;;;;;5014728;28;20501;-70
2021/05/17 12:53:18;;;;;;;2.65;0.25;;;12.90;84.30;;;;;;5013819;28;20116;-71
2021/05/17 12:55:46;;;;;;;0.30;0.17;;;12.90;83.00;;;;;;5014284;28;20025;-70
2021/05/17 12:58:13;;;;;;;2.75;0.20;;;12.90;81.70;;;;;;5031305;28;20041;-71
2021/05/17 13:00:51;;;;;;;0.32;0.20;;;12.80;80.90;;;;;;5014544;28;20039;-70
2021/05/17 13:03:25;;;;;;;1.00;0.38;;;12.80;81.50;;;;;;5031745;28;20646;-70
2021/05/17 13:06:10;;;;;;;0.85;0.20;;;12.70;84.00;;;;;;5014544;28;20542;-70
2021/05/17 13:08:38;;;;;;;0.47;0.20;;;12.50;84.90;;;;;;5014633;28;20390;-70
2021/05/17 13:11:08;;;;;;;1.77;0.20;;;12.50;86.70;;;;;;5014535;28;20026;-70
2021/05/17 13:13:53;;;;;;;0.68;0.28;;;12.80;86.20;;;;;;5014336;28;20052;-70
2021/05/17 13:16:24;;;;;;;0.13;0.05;;;12.80;87.00;;;;;;5013717;28;20021;-70
2021/05/17 13:18:53;;;;;;;0.80;0.25;;;12.80;87.30;;;;;;5014112;28;20045;-70
2021/05/17 13:21:28;;;;;;;1.00;0.20;;;12.80;87.60;;;;;;5014131;28;20128;-70
2021/05/17 13:30:02;;;;;;;0.20;0.10;;;12.60;86.50;;;;;;5035843;28;20036;-70